createdAt,value
2023-02-16T00:01:42.514Z,69.60
2023-02-16T00:04:22.654Z,70.30
2023-02-16T00:06:54.790Z,70.00
2023-02-16T00:09:24.744Z,69.80
2023-02-16T00:12:11.802Z,69.80
2023-02-16T00:14:39.760Z,69.90
2023-02-16T00:17:07.108Z,69.80
2023-02-16T00:19:42.525Z,69.60
2023-02-16T00:22:11.606Z,69.60
2023-02-16T00:24:41.306Z,69.80
2023-02-16T00:27:15.941Z,69.90
2023-02-16T00:29:45.960Z,70.40
2023-02-16T00:32:14.884Z,70.30
2023-02-16T00:34:46.625Z,70.40
2023-02-16T00:37:15.401Z,70.60
2023-02-16T00:39:45.954Z,70.80
2023-02-16T00:42:28.912Z,70.90
2023-02-16T00:44:58.290Z,71.50
2023-02-16T00:47:35.139Z,71.20
2023-02-16T00:50:01.763Z,71.60
2023-02-16T00:52:37.206Z,71.40
2023-02-16T00:55:07.800Z,71.50
2023-02-16T00:57:56.684Z,71.30
2023-02-16T01:00:32.406Z,71.30
2023-02-16T01:03:02.441Z,71.20
2023-02-16T01:05:29.229Z,71.00
2023-02-16T01:08:17.781Z,70.90
2023-02-16T01:11:09.181Z,70.80
2023-02-16T01:13:44.992Z,70.70
2023-02-16T01:16:37.113Z,70.60
2023-02-16T01:19:08.892Z,70.50
2023-02-16T01:21:37.689Z,70.10
2023-02-16T01:24:07.126Z,70.20
2023-02-16T01:26:41.553Z,70.10
2023-02-16T01:29:22.004Z,70.00
2023-02-16T01:31:59.373Z,70.00
2023-02-16T01:34:28.659Z,69.90
2023-02-16T01:37:02.128Z,70.00
2023-02-16T01:39:31.126Z,70.00
2023-02-16T01:42:16.384Z,69.80
2023-02-16T01:44:47.876Z,69.60
2023-02-16T01:47:47.624Z,69.50
2023-02-16T01:50:18.963Z,69.30
2023-02-16T01:52:55.370Z,69.00
2023-02-16T01:55:34.939Z,68.80
2023-02-16T01:58:23.968Z,68.70
2023-02-16T02:00:54.882Z,68.50
2023-02-16T02:03:44.620Z,68.80
2023-02-16T02:06:17.704Z,68.00
2023-02-16T02:08:55.647Z,68.10
2023-02-16T02:11:32.388Z,68.10
2023-02-16T02:14:06.266Z,68.10
2023-02-16T02:16:36.271Z,68.10
2023-02-16T02:19:05.951Z,68.00
2023-02-16T02:22:28.860Z,68.10
2023-02-16T02:24:58.611Z,68.40
2023-02-16T02:27:28.384Z,68.20
2023-02-16T02:30:27.552Z,68.20
2023-02-16T02:33:09.808Z,68.10
2023-02-16T02:36:08.644Z,68.40
2023-02-16T02:39:15.614Z,68.70
2023-02-16T02:42:04.855Z,69.20
2023-02-16T02:44:50.060Z,69.50
2023-02-16T02:47:23.510Z,70.00
2023-02-16T02:49:56.967Z,70.20
2023-02-16T02:52:25.946Z,70.50
2023-02-16T02:55:11.179Z,70.50
2023-02-16T02:58:02.154Z,70.70
2023-02-16T03:00:51.527Z,71.40
2023-02-16T03:03:33.517Z,70.70
2023-02-16T03:06:09.925Z,70.50
2023-02-16T03:08:40.730Z,70.40
2023-02-16T03:11:37.276Z,70.50
2023-02-16T03:14:14.842Z,70.60
2023-02-16T03:16:48.295Z,70.60
2023-02-16T03:19:36.813Z,70.40
2023-02-16T03:22:22.907Z,70.30
2023-02-16T03:25:13.443Z,70.20
2023-02-16T03:28:01.451Z,70.10
2023-02-16T03:30:32.107Z,70.10
2023-02-16T03:33:01.521Z,70.20
2023-02-16T03:35:30.985Z,70.40
2023-02-16T03:37:57.657Z,70.30
2023-02-16T03:40:28.610Z,70.30
2023-02-16T03:43:05.335Z,70.30
2023-02-16T03:45:35.038Z,70.30
2023-02-16T03:48:02.558Z,70.10
2023-02-16T03:50:29.812Z,70.10
2023-02-16T03:53:10.939Z,70.10
2023-02-16T03:55:40.814Z,70.20
2023-02-16T03:58:09.546Z,70.20
2023-02-16T04:00:40.867Z,70.30
2023-02-16T04:03:10.841Z,70.40
2023-02-16T04:05:42.082Z,70.50
2023-02-16T04:08:09.991Z,70.40
2023-02-16T04:10:39.898Z,70.40
2023-02-16T04:13:12.991Z,70.40
2023-02-16T04:15:46.631Z,70.40
2023-02-16T04:18:13.354Z,70.30
2023-02-16T04:20:42.056Z,70.40
2023-02-16T04:23:11.073Z,70.40
2023-02-16T04:25:37.641Z,70.40
2023-02-16T04:28:09.883Z,70.70
2023-02-16T04:30:36.444Z,70.80
2023-02-16T04:33:03.121Z,71.10
2023-02-16T04:35:29.761Z,70.30
2023-02-16T04:37:56.317Z,70.20
2023-02-16T04:40:26.504Z,70.10
2023-02-16T04:42:56.797Z,70.10
2023-02-16T04:45:33.141Z,70.10
2023-02-16T04:47:59.749Z,70.30
2023-02-16T04:50:26.410Z,70.20
2023-02-16T04:52:52.966Z,70.30
2023-02-16T04:55:19.714Z,70.40
2023-02-16T04:57:48.474Z,70.40
2023-02-16T05:00:17.946Z,70.40
2023-02-16T05:02:44.585Z,70.40
2023-02-16T05:05:13.834Z,70.50
2023-02-16T05:07:40.659Z,70.60
2023-02-16T05:10:10.503Z,70.60
2023-02-16T05:13:00.232Z,70.60
2023-02-16T05:15:26.793Z,70.60
2023-02-16T05:17:57.510Z,70.60
2023-02-16T05:20:44.100Z,70.70
2023-02-16T05:23:13.769Z,70.70
2023-02-16T05:25:40.435Z,70.70
2023-02-16T05:28:07.036Z,70.70
2023-02-16T05:30:34.239Z,70.60
2023-02-16T05:33:00.908Z,70.70
2023-02-16T05:35:27.557Z,70.60
2023-02-16T05:37:54.122Z,70.60
2023-02-16T05:40:20.709Z,70.60
2023-02-16T05:42:49.431Z,70.50
2023-02-16T05:45:16.105Z,70.40
2023-02-16T05:47:42.663Z,70.40
2023-02-16T05:50:09.526Z,70.50
2023-02-16T05:52:36.362Z,70.20
2023-02-16T05:55:03.107Z,70.20
2023-02-16T05:57:30.021Z,70.20
2023-02-16T05:59:56.641Z,70.10
2023-02-16T06:02:23.255Z,70.10
2023-02-16T06:04:49.811Z,70.00
2023-02-16T06:07:16.373Z,70.00
2023-02-16T06:09:42.966Z,70.00
2023-02-16T06:12:11.865Z,70.00
2023-02-16T06:14:38.452Z,70.00
2023-02-16T06:17:05.038Z,70.00
2023-02-16T06:19:32.326Z,70.10
2023-02-16T06:21:59.071Z,70.00
2023-02-16T06:24:25.733Z,70.00
2023-02-16T06:26:52.387Z,70.00
2023-02-16T06:29:18.954Z,70.00
2023-02-16T06:31:45.648Z,70.00
2023-02-16T06:34:12.318Z,70.10
2023-02-16T06:36:42.593Z,69.90
2023-02-16T06:39:09.470Z,69.70
2023-02-16T06:41:39.822Z,69.60
2023-02-16T06:44:10.153Z,69.40
2023-02-16T06:46:36.839Z,69.40
2023-02-16T06:49:04.230Z,69.30
2023-02-16T06:51:33.191Z,69.30
2023-02-16T06:53:59.797Z,69.20
2023-02-16T06:56:26.508Z,69.40
2023-02-16T06:58:53.066Z,69.40
2023-02-16T07:01:22.932Z,69.40
2023-02-16T07:03:50.860Z,69.40
2023-02-16T07:06:17.994Z,69.40
2023-02-16T07:08:44.681Z,69.40
2023-02-16T07:11:12.165Z,69.30
2023-02-16T07:13:38.766Z,69.40
2023-02-16T07:16:06.381Z,69.40
2023-02-16T07:18:33.917Z,69.50
2023-02-16T07:21:00.563Z,69.40
2023-02-16T07:23:28.975Z,69.50
2023-02-16T07:25:55.534Z,69.50
2023-02-16T07:28:22.138Z,69.60
2023-02-16T07:30:48.696Z,69.60
2023-02-16T07:33:15.598Z,69.60
2023-02-16T07:35:42.427Z,69.60
2023-02-16T07:38:09.624Z,69.60
2023-02-16T07:40:36.720Z,69.60
2023-02-16T07:43:05.934Z,69.70
2023-02-16T07:45:32.939Z,69.80
2023-02-16T07:48:00.546Z,69.80
2023-02-16T07:50:27.297Z,69.90
2023-02-16T07:52:53.885Z,69.90
2023-02-16T07:55:20.475Z,69.90
2023-02-16T07:57:49.260Z,69.90
2023-02-16T08:00:16.335Z,70.00
2023-02-16T08:02:45.271Z,69.90
2023-02-16T08:05:11.995Z,69.90
2023-02-16T08:07:39.679Z,69.90
2023-02-16T08:10:06.942Z,69.90
2023-02-16T08:12:33.856Z,70.00
2023-02-16T08:15:00.481Z,70.00
2023-02-16T08:17:27.219Z,70.20
2023-02-16T08:19:53.794Z,70.30
2023-02-16T08:22:20.433Z,70.30
2023-02-16T08:24:47.064Z,70.30
2023-02-16T08:27:13.840Z,70.20
2023-02-16T08:29:41.486Z,70.00
2023-02-16T08:32:11.582Z,69.70
2023-02-16T08:34:39.230Z,69.60
2023-02-16T08:37:06.815Z,69.50
2023-02-16T08:39:33.534Z,69.40
2023-02-16T08:42:01.412Z,69.20
2023-02-16T08:44:29.397Z,69.20
2023-02-16T08:46:58.758Z,69.00
2023-02-16T08:49:25.914Z,68.80
2023-02-16T08:51:55.041Z,68.80
2023-02-16T08:54:26.592Z,68.60
2023-02-16T08:56:54.165Z,69.00
2023-02-16T08:59:22.661Z,68.20
2023-02-16T09:01:49.615Z,68.00
2023-02-16T09:04:19.707Z,67.90
2023-02-16T09:06:48.271Z,67.70
2023-02-16T09:09:15.119Z,67.60
2023-02-16T09:11:41.790Z,67.50
2023-02-16T09:14:09.337Z,67.40
2023-02-16T09:16:39.188Z,67.30
2023-02-16T09:19:06.822Z,67.10
2023-02-16T09:21:33.549Z,67.00
2023-02-16T09:24:02.202Z,66.90
2023-02-16T09:26:33.051Z,66.90
2023-02-16T09:29:00.826Z,66.80
2023-02-16T09:31:30.846Z,66.80
2023-02-16T09:34:04.048Z,66.80
2023-02-16T09:36:31.826Z,66.70
2023-02-16T09:38:59.407Z,66.70
2023-02-16T09:41:41.303Z,66.50
2023-02-16T09:44:31.577Z,66.10
2023-02-16T09:47:01.213Z,66.30
2023-02-16T09:49:34.894Z,66.10
2023-02-16T09:52:26.992Z,65.80
2023-02-16T09:54:57.540Z,65.70
2023-02-16T09:57:54.449Z,65.80
2023-02-16T10:00:39.114Z,65.60
2023-02-16T10:03:43.125Z,65.60
2023-02-16T10:06:44.938Z,65.60
2023-02-16T10:09:18.111Z,65.60
2023-02-16T10:12:11.045Z,65.70
2023-02-16T10:14:48.084Z,65.60
2023-02-16T10:17:37.525Z,65.80
2023-02-16T10:20:17.603Z,65.70
2023-02-16T10:22:57.090Z,65.80
2023-02-16T10:25:37.046Z,65.90
2023-02-16T10:28:23.192Z,65.90
2023-02-16T10:31:15.820Z,65.90
2023-02-16T10:34:05.192Z,65.80
2023-02-16T10:36:57.097Z,65.90
2023-02-16T10:39:34.990Z,65.80
2023-02-16T10:42:19.646Z,65.70
2023-02-16T10:44:52.395Z,65.70
2023-02-16T10:47:32.018Z,66.30
2023-02-16T10:49:58.686Z,65.80
2023-02-16T10:52:32.558Z,65.90
2023-02-16T10:54:59.169Z,66.50
2023-02-16T10:57:29.590Z,66.10
2023-02-16T10:59:59.005Z,66.10
2023-02-16T11:02:32.590Z,66.20
2023-02-16T11:04:59.405Z,66.00
2023-02-16T11:07:31.101Z,66.00
2023-02-16T11:10:01.276Z,65.80
2023-02-16T11:12:38.595Z,65.70
2023-02-16T11:15:23.745Z,65.70
2023-02-16T11:17:54.470Z,65.90
2023-02-16T11:20:32.104Z,65.90
2023-02-16T11:23:17.541Z,66.10
2023-02-16T11:26:23.775Z,65.90
2023-02-16T11:28:51.750Z,66.30
2023-02-16T11:31:33.447Z,66.00
2023-02-16T11:34:27.894Z,65.90
2023-02-16T11:37:24.776Z,65.90
2023-02-16T11:40:02.404Z,65.80
2023-02-16T11:42:40.158Z,65.20
2023-02-16T11:45:08.516Z,65.40
2023-02-16T11:47:37.589Z,65.30
2023-02-16T11:50:21.511Z,65.20
2023-02-16T11:52:54.379Z,64.90
2023-02-16T11:55:22.970Z,64.90
2023-02-16T11:57:50.202Z,65.10
2023-02-16T12:00:21.892Z,65.20
2023-02-16T12:03:21.826Z,65.20
2023-02-16T12:06:11.485Z,65.10
2023-02-16T12:09:02.688Z,65.30
2023-02-16T12:12:08.762Z,65.40
2023-02-16T12:15:02.301Z,65.70
2023-02-16T12:17:48.607Z,65.90
2023-02-16T12:20:41.624Z,65.70
2023-02-16T12:23:26.698Z,65.40
2023-02-16T12:26:04.147Z,65.50
2023-02-16T12:29:06.778Z,65.30
2023-02-16T12:32:17.438Z,65.00
2023-02-16T12:35:01.792Z,64.80
2023-02-16T12:37:53.737Z,64.60
2023-02-16T12:41:01.458Z,64.40
2023-02-16T12:43:42.664Z,64.20
2023-02-16T12:46:42.656Z,64.00
2023-02-16T12:49:27.453Z,63.90
2023-02-16T12:52:04.438Z,64.10
2023-02-16T12:54:47.986Z,64.10
2023-02-16T12:57:21.367Z,63.80
2023-02-16T13:00:08.114Z,64.00
2023-02-16T13:03:02.641Z,63.30
2023-02-16T13:05:34.611Z,63.40
2023-02-16T13:08:26.675Z,63.50
2023-02-16T13:11:03.056Z,62.90
2023-02-16T13:13:34.105Z,63.20
2023-02-16T13:16:29.951Z,62.80
2023-02-16T13:18:57.981Z,62.40
2023-02-16T13:21:50.829Z,62.60
2023-02-16T13:24:36.088Z,62.60
2023-02-16T13:27:20.389Z,62.20
2023-02-16T13:29:52.859Z,62.50
2023-02-16T13:32:48.433Z,62.30
2023-02-16T13:35:39.641Z,61.40
2023-02-16T13:38:23.932Z,61.60
2023-02-16T13:41:25.431Z,61.40
2023-02-16T13:44:07.821Z,60.90
2023-02-16T13:46:39.707Z,61.30
2023-02-16T13:49:07.547Z,61.70
2023-02-16T13:51:46.071Z,61.00
2023-02-16T13:54:27.813Z,60.50
2023-02-16T13:56:54.444Z,60.30
2023-02-16T13:59:21.144Z,60.70
2023-02-16T14:01:50.451Z,60.50
2023-02-16T14:04:23.549Z,60.20
2023-02-16T14:07:20.773Z,59.80
2023-02-16T14:09:51.568Z,59.60
2023-02-16T14:12:31.748Z,60.00
2023-02-16T14:15:02.345Z,60.30
2023-02-16T14:17:34.896Z,60.40
2023-02-16T14:20:13.262Z,60.50
2023-02-16T14:22:50.039Z,60.20
2023-02-16T14:25:22.592Z,60.10
2023-02-16T14:28:05.120Z,60.40
2023-02-16T14:30:34.666Z,59.80
2023-02-16T14:33:16.868Z,60.60
2023-02-16T14:35:58.809Z,60.30
2023-02-16T14:38:40.506Z,59.50
2023-02-16T14:41:15.641Z,59.20
2023-02-16T14:43:49.847Z,59.40
2023-02-16T14:46:46.522Z,59.20
2023-02-16T14:49:46.951Z,59.20
2023-02-16T14:52:19.454Z,58.90
2023-02-16T14:55:11.976Z,59.20
2023-02-16T14:58:03.545Z,58.40
2023-02-16T15:00:51.381Z,58.30
2023-02-16T15:03:24.350Z,58.40
2023-02-16T15:05:53.795Z,58.60
2023-02-16T15:08:23.465Z,58.50
2023-02-16T15:10:56.784Z,58.30
2023-02-16T15:13:27.376Z,58.00
2023-02-16T15:15:56.668Z,58.00
2023-02-16T15:18:28.488Z,58.10
2023-02-16T15:20:58.298Z,57.70
2023-02-16T15:23:31.666Z,57.70
2023-02-16T15:25:59.851Z,57.30
2023-02-16T15:28:30.626Z,58.20
2023-02-16T15:30:59.919Z,57.30
2023-02-16T15:33:34.271Z,57.20
2023-02-16T15:36:13.321Z,57.00
2023-02-16T15:38:56.955Z,57.10
2023-02-16T15:41:31.861Z,57.30
2023-02-16T15:43:59.559Z,56.90
2023-02-16T15:46:31.027Z,57.20
2023-02-16T15:48:59.818Z,57.00
2023-02-16T15:51:31.301Z,57.30
2023-02-16T15:54:21.987Z,57.50
2023-02-16T15:56:53.945Z,57.20
2023-02-16T15:59:38.649Z,57.80
2023-02-16T16:02:33.123Z,57.30
2023-02-16T16:05:05.267Z,57.10
2023-02-16T16:07:39.739Z,57.60
2023-02-16T16:10:16.740Z,57.50
2023-02-16T16:12:44.324Z,57.00
2023-02-16T16:15:22.787Z,57.40
2023-02-16T16:17:51.730Z,57.00
2023-02-16T16:20:35.886Z,57.30
2023-02-16T16:23:24.984Z,56.90
2023-02-16T16:25:54.883Z,57.10
2023-02-16T16:28:27.549Z,57.30
2023-02-16T16:31:25.077Z,57.30
2023-02-16T16:33:58.659Z,57.10
2023-02-16T16:36:53.263Z,57.70
2023-02-16T16:39:50.999Z,57.40
2023-02-16T16:42:24.065Z,57.60
2023-02-16T16:45:03.354Z,57.80
2023-02-16T16:47:40.119Z,58.00
2023-02-16T16:50:16.585Z,58.10
2023-02-16T16:52:49.445Z,58.20
2023-02-16T16:55:18.733Z,58.30
2023-02-16T16:57:56.377Z,58.50
2023-02-16T17:00:27.683Z,58.40
2023-02-16T17:03:00.699Z,58.80
2023-02-16T17:05:30.470Z,58.90
2023-02-16T17:07:57.151Z,59.00
2023-02-16T17:10:24.359Z,59.10
2023-02-16T17:12:54.631Z,59.20
2023-02-16T17:15:29.739Z,59.30
2023-02-16T17:17:57.188Z,59.30
2023-02-16T17:20:23.912Z,59.50
2023-02-16T17:22:50.755Z,59.60
2023-02-16T17:25:20.023Z,59.70
2023-02-16T17:27:46.681Z,59.70
2023-02-16T17:30:13.999Z,59.90
2023-02-16T17:32:40.605Z,59.90
2023-02-16T17:35:07.682Z,60.30
2023-02-16T17:37:35.422Z,60.30
2023-02-16T17:40:09.519Z,60.40
2023-02-16T17:42:37.316Z,60.50
2023-02-16T17:45:04.129Z,60.50
2023-02-16T17:47:30.742Z,60.60
2023-02-16T17:49:57.383Z,60.60
2023-02-16T17:52:25.032Z,60.60
2023-02-16T17:54:53.757Z,60.80
2023-02-16T17:57:20.466Z,60.90
2023-02-16T17:59:47.073Z,60.80
2023-02-16T18:02:13.673Z,60.90
2023-02-16T18:04:43.332Z,60.90
2023-02-16T18:07:14.145Z,60.90
2023-02-16T18:09:41.150Z,61.40
2023-02-16T18:12:08.271Z,61.60
2023-02-16T18:14:35.959Z,61.60
2023-02-16T18:17:04.040Z,61.60
2023-02-16T18:19:31.808Z,61.70
2023-02-16T18:21:58.495Z,61.70
2023-02-16T18:24:25.235Z,61.90
2023-02-16T18:26:54.521Z,62.00
2023-02-16T18:29:21.401Z,62.20
2023-02-16T18:31:48.054Z,62.50
2023-02-16T18:34:14.797Z,62.70
2023-02-16T18:36:41.844Z,62.80
2023-02-16T18:39:09.482Z,62.90
2023-02-16T18:41:36.783Z,63.70
2023-02-16T18:44:04.270Z,63.30
2023-02-16T18:46:30.860Z,63.30
2023-02-16T18:48:57.450Z,63.50
2023-02-16T18:51:29.160Z,63.70
2023-02-16T18:53:57.973Z,63.90
2023-02-16T18:56:24.719Z,64.10
2023-02-16T18:58:53.446Z,64.10
2023-02-16T19:01:30.005Z,64.30
2023-02-16T19:04:03.109Z,64.50
2023-02-16T19:06:32.482Z,64.40
2023-02-16T19:08:59.822Z,64.50
2023-02-16T19:11:33.934Z,64.50
2023-02-16T19:14:00.614Z,64.60
2023-02-16T19:16:27.339Z,64.60
2023-02-16T19:18:53.988Z,64.60
2023-02-16T19:21:21.932Z,64.70
2023-02-16T19:23:48.574Z,64.80
2023-02-16T19:26:18.371Z,64.80
2023-02-16T19:28:48.591Z,64.90
2023-02-16T19:31:19.823Z,64.90
2023-02-16T19:33:51.581Z,64.90
2023-02-16T19:36:19.297Z,65.00
2023-02-16T19:38:46.396Z,65.10
2023-02-16T19:41:19.006Z,65.10
2023-02-16T19:43:48.037Z,65.20
2023-02-16T19:46:15.294Z,65.20
2023-02-16T19:48:43.150Z,65.20
2023-02-16T19:51:12.827Z,65.30
2023-02-16T19:53:40.564Z,65.40
2023-02-16T19:56:14.998Z,65.40
2023-02-16T19:58:45.736Z,65.50
2023-02-16T20:01:18.444Z,65.50
2023-02-16T20:03:48.818Z,65.60
2023-02-16T20:06:17.855Z,65.60
2023-02-16T20:08:45.574Z,65.60
2023-02-16T20:11:21.631Z,65.70
2023-02-16T20:13:48.719Z,65.80
2023-02-16T20:16:18.532Z,65.80
2023-02-16T20:18:47.608Z,65.90
2023-02-16T20:21:21.630Z,66.00
2023-02-16T20:23:57.166Z,66.30
2023-02-16T20:26:34.405Z,66.50
2023-02-16T20:29:03.430Z,66.70
2023-02-16T20:31:35.449Z,66.60
2023-02-16T20:34:07.325Z,66.70
2023-02-16T20:36:39.476Z,66.70
2023-02-16T20:39:16.173Z,66.90
2023-02-16T20:41:43.155Z,66.90
2023-02-16T20:44:10.238Z,66.90
2023-02-16T20:46:42.444Z,67.00
2023-02-16T20:49:13.323Z,67.10
2023-02-16T20:51:45.339Z,67.20
2023-02-16T20:54:14.523Z,67.20
2023-02-16T20:56:43.302Z,67.20
2023-02-16T20:59:16.934Z,67.20
2023-02-16T21:01:52.369Z,67.30
2023-02-16T21:04:22.444Z,67.30
2023-02-16T21:06:49.339Z,67.30
2023-02-16T21:09:16.963Z,67.30
2023-02-16T21:11:54.280Z,67.40
2023-02-16T21:14:21.019Z,67.50
2023-02-16T21:16:48.963Z,67.20
2023-02-16T21:19:23.243Z,67.40
2023-02-16T21:21:53.411Z,67.60
2023-02-16T21:24:30.143Z,67.60
2023-02-16T21:27:00.927Z,67.50
2023-02-16T21:29:27.530Z,67.40
2023-02-16T21:31:57.400Z,67.60
2023-02-16T21:34:25.925Z,68.30
2023-02-16T21:36:54.967Z,67.80
2023-02-16T21:39:45.387Z,67.80
2023-02-16T21:42:15.142Z,67.90
2023-02-16T21:44:47.228Z,67.90
2023-02-16T21:47:35.802Z,68.00
2023-02-16T21:50:04.960Z,68.00
2023-02-16T21:52:33.503Z,68.00
2023-02-16T21:55:21.296Z,68.00
2023-02-16T21:57:56.351Z,68.10
2023-02-16T22:00:23.049Z,68.00
2023-02-16T22:02:49.693Z,68.10
2023-02-16T22:05:21.663Z,68.10
2023-02-16T22:07:48.278Z,68.10
2023-02-16T22:10:17.189Z,68.10
2023-02-16T22:12:44.142Z,68.10
2023-02-16T22:15:13.586Z,68.10
2023-02-16T22:17:43.149Z,68.00
2023-02-16T22:20:12.478Z,68.00
2023-02-16T22:22:45.634Z,68.00
2023-02-16T22:25:12.774Z,67.90
2023-02-16T22:27:42.828Z,67.90
2023-02-16T22:30:12.605Z,67.90
2023-02-16T22:32:45.315Z,68.00
2023-02-16T22:35:14.588Z,67.80
2023-02-16T22:37:48.676Z,67.90
2023-02-16T22:40:16.822Z,67.90
2023-02-16T22:42:43.762Z,67.90
2023-02-16T22:45:12.589Z,67.90
2023-02-16T22:47:44.209Z,67.90
2023-02-16T22:50:13.293Z,67.80
2023-02-16T22:52:44.695Z,67.80
2023-02-16T22:55:13.520Z,68.00
2023-02-16T22:57:42.348Z,67.80
2023-02-16T23:00:17.384Z,68.00
2023-02-16T23:02:50.884Z,67.90
2023-02-16T23:05:19.727Z,67.90
2023-02-16T23:07:46.726Z,67.90
2023-02-16T23:10:16.310Z,67.90
2023-02-16T23:12:46.537Z,67.90
2023-02-16T23:15:16.614Z,68.00
2023-02-16T23:17:43.194Z,68.00
2023-02-16T23:20:10.534Z,68.00
2023-02-16T23:22:39.821Z,68.00
2023-02-16T23:25:25.190Z,68.00
2023-02-16T23:27:53.164Z,68.00
2023-02-16T23:30:21.684Z,68.00
2023-02-16T23:32:50.579Z,68.00
2023-02-16T23:35:17.236Z,68.00
2023-02-16T23:37:46.574Z,68.00
2023-02-16T23:40:18.170Z,68.00
2023-02-16T23:42:49.631Z,68.00
2023-02-16T23:45:20.591Z,68.00
2023-02-16T23:47:53.094Z,68.00
2023-02-16T23:50:22.187Z,68.00
2023-02-16T23:52:48.883Z,68.00
2023-02-16T23:55:18.607Z,68.00
2023-02-16T23:57:47.706Z,68.00
